Aeroporto :
LOGIN :

Iscrizione | Disclaimer

   EN    FR    IT 

 










Sommario :    VFR   VFR Marginale   IFR   IFR Intensivo   IFR Molto Intensivo
Visibilità : 
Base nubi : 
>= 8 km
>= 3000ft
5 / 8 km
1000 / 3000 ft
1500m / 5 km
500 / 1000 ft
800 / 1500m
200 / 500 ft
< 800m
< 200 ft
Simboli :   Temporali  Nebbia  Neve Forte  Precipitazioni Forti  Vento > 20 kt
SIGMETs :   Varie  Temporali  Ghiacco  Turbolenza  Onda orograficha  Ceneri Vulcaniche






- Altitudine del aeroporto : 1247 ft
- Codice IATA : PRG


LKPR - Praha Ruzyne

ULTIMO METAR :
  • 010030Z 22004KT CAVOK M04/M08 Q1025 NOSIG

METARs OBSOLETI :
  • 010000Z 22005KT CAVOK M06/M09 Q1025 NOSIG
  • 312330Z 21004KT CAVOK M05/M09 Q1025 NOSIG
  • 312300Z 22004KT CAVOK M06/M09 Q1026 NOSIG
  • 312230Z 22004KT CAVOK M05/M09 Q1026 NOSIG
  • 312200Z 23003KT CAVOK M05/M09 Q1026 NOSIG

TAF TAF LKPR
Valido dal 01 a 00 ore il 02 a 06 ore UTC


312300Z 0100/0206 21003KT CAVOK
PROB30
TEMPO 0103/0106 5000 BR NSC
TEMPO 0108/0117 21006KT



MetMap, La meteo Aeronautica in un colpo d'occhio ! - Copyright ORBIFLY Dicembre 2007 - Disclaimer

ORBIFLY MET'MAP TEAM :

Programmazione e sviluppo : Alexandra Zaïnal
Concezione : Baudouin d'Aumeries
Aiuto per la programmazione : Marc-Olivier Méhu
Supporto tecnico e logistico : Manuel Goepfert
Aiuto per la traduzione : Arnaldo La Scala

Contatto : metmap@orbifly.com




FONTI E CREDITI :

   NOAA